createdAt,value
2018-06-14T00:00:37.487Z,19.73
2018-06-14T00:03:05.135Z,18.93
2018-06-14T00:05:32.761Z,20.87
2018-06-14T00:08:00.315Z,19.43
2018-06-14T00:10:27.914Z,20.40
2018-06-14T00:12:55.465Z,20.23
2018-06-14T00:15:22.999Z,18.47
2018-06-14T00:17:50.555Z,17.90
2018-06-14T00:20:18.093Z,18.63
2018-06-14T00:22:45.663Z,19.17
2018-06-14T00:25:13.308Z,18.97
2018-06-14T00:27:40.852Z,18.23
2018-06-14T00:30:08.382Z,18.70
2018-06-14T00:32:35.950Z,17.00
2018-06-14T00:35:03.518Z,16.20
2018-06-14T00:37:31.032Z,18.50
2018-06-14T00:39:58.588Z,18.20
2018-06-14T00:42:26.103Z,16.97
2018-06-14T00:44:53.632Z,18.07
2018-06-14T00:47:21.174Z,16.47
2018-06-14T00:49:48.699Z,16.40
2018-06-14T00:52:16.232Z,16.83
2018-06-14T00:54:43.776Z,16.60
2018-06-14T00:57:23.046Z,16.77
2018-06-14T00:59:50.590Z,15.90
2018-06-14T01:02:18.130Z,15.40
2018-06-14T01:04:45.690Z,15.00
2018-06-14T01:07:13.221Z,15.20
2018-06-14T01:09:40.898Z,15.10
2018-06-14T01:12:08.471Z,15.20
2018-06-14T01:14:36.014Z,14.60
2018-06-14T01:17:03.590Z,14.27
2018-06-14T01:19:31.155Z,16.93
2018-06-14T01:21:58.695Z,15.07
2018-06-14T01:24:26.320Z,14.83
2018-06-14T01:26:54.729Z,14.30
2018-06-14T01:29:22.363Z,14.80
2018-06-14T01:31:49.895Z,15.97
2018-06-14T01:34:17.428Z,15.00
2018-06-14T01:36:44.929Z,15.80
2018-06-14T01:39:12.501Z,14.13
2018-06-14T01:41:40.072Z,14.90
2018-06-14T01:44:07.563Z,14.33
2018-06-14T01:46:35.069Z,13.40
2018-06-14T01:49:02.653Z,13.30
2018-06-14T01:51:30.249Z,15.10
2018-06-14T01:53:57.853Z,14.30
2018-06-14T01:56:25.449Z,13.90
2018-06-14T01:58:52.975Z,13.20
2018-06-14T02:01:20.513Z,14.40
2018-06-14T02:03:48.221Z,14.60
2018-06-14T02:06:15.758Z,14.20
2018-06-14T02:08:43.283Z,14.80
2018-06-14T02:11:10.854Z,14.87
2018-06-14T02:13:38.607Z,14.50
2018-06-14T02:16:08.113Z,15.17
2018-06-14T02:18:36.993Z,14.57
2018-06-14T02:21:04.563Z,14.07
2018-06-14T02:23:32.285Z,13.50
2018-06-14T02:25:59.965Z,14.83
2018-06-14T02:28:27.613Z,14.53
2018-06-14T02:30:55.267Z,14.60
2018-06-14T02:33:22.813Z,14.10
2018-06-14T02:35:50.550Z,13.37
2018-06-14T02:38:20.599Z,12.70
2018-06-14T02:40:48.136Z,13.90
2018-06-14T02:43:15.809Z,15.30
2018-06-14T02:45:43.638Z,12.60
2018-06-14T02:48:11.151Z,12.27
2018-06-14T02:50:38.732Z,12.17
2018-06-14T02:53:06.288Z,13.13
2018-06-14T02:55:33.859Z,11.70
2018-06-14T02:58:01.430Z,10.73
2018-06-14T03:00:29.027Z,11.93
2018-06-14T03:02:56.541Z,11.83
2018-06-14T03:05:24.147Z,11.90
2018-06-14T03:07:51.670Z,10.70
2018-06-14T03:10:19.197Z,10.90
2018-06-14T03:12:46.728Z,10.60
2018-06-14T03:15:14.297Z,10.10
2018-06-14T03:17:41.834Z,9.10
2018-06-14T03:20:09.374Z,9.63
2018-06-14T03:22:36.953Z,9.33
2018-06-14T03:25:04.608Z,8.83
2018-06-14T03:27:32.146Z,9.30
2018-06-14T03:29:59.724Z,8.73
2018-06-14T03:32:27.306Z,8.93
2018-06-14T03:34:54.879Z,9.30
2018-06-14T03:37:22.388Z,8.90
2018-06-14T03:39:49.923Z,8.73
2018-06-14T03:42:17.469Z,8.97
2018-06-14T03:44:45.069Z,9.20
2018-06-14T03:47:12.593Z,9.70
2018-06-14T03:49:41.099Z,9.80
2018-06-14T03:52:09.685Z,9.00
2018-06-14T03:54:37.239Z,10.20
2018-06-14T03:57:04.854Z,10.50
2018-06-14T03:59:32.785Z,8.90
2018-06-14T04:02:00.393Z,9.53
2018-06-14T04:04:28.043Z,10.37
2018-06-14T04:06:55.577Z,10.00
2018-06-14T04:09:23.101Z,10.80
2018-06-14T04:11:50.621Z,11.00
2018-06-14T04:14:18.128Z,11.57
2018-06-14T04:16:45.662Z,11.90
2018-06-14T04:19:13.207Z,10.43
2018-06-14T04:21:40.741Z,12.97
2018-06-14T04:24:08.281Z,11.07
2018-06-14T04:26:35.857Z,11.33
2018-06-14T04:29:03.348Z,11.20
2018-06-14T04:31:30.879Z,12.07
2018-06-14T04:33:58.417Z,11.80
2018-06-14T04:36:25.937Z,12.83
2018-06-14T04:38:53.434Z,13.47
2018-06-14T04:41:20.985Z,12.43
2018-06-14T04:43:48.489Z,12.87
2018-06-14T04:46:16.019Z,17.07
2018-06-14T04:48:43.799Z,13.00
2018-06-14T04:51:11.655Z,14.83
2018-06-14T04:53:40.491Z,13.80
2018-06-14T04:56:09.985Z,14.03
2018-06-14T04:58:37.677Z,12.43
2018-06-14T05:01:05.889Z,13.37
2018-06-14T05:03:33.451Z,12.63
2018-06-14T05:06:01.307Z,11.70
2018-06-14T05:08:28.870Z,11.63
2018-06-14T05:10:56.421Z,13.10
2018-06-14T05:13:24.177Z,13.30
2018-06-14T05:15:52.604Z,12.60
2018-06-14T05:18:21.451Z,13.50
2018-06-14T05:20:49.861Z,12.87
2018-06-14T05:23:18.191Z,11.67
2018-06-14T05:25:46.032Z,12.90
2018-06-14T05:28:13.615Z,11.97
2018-06-14T05:30:41.479Z,12.30
2018-06-14T05:33:09.067Z,11.70
2018-06-14T05:35:36.751Z,11.60
2018-06-14T05:38:04.414Z,11.90
2018-06-14T05:40:32.065Z,11.53
2018-06-14T05:42:59.622Z,12.03
2018-06-14T05:45:27.183Z,11.17
2018-06-14T05:47:54.727Z,11.20
2018-06-14T05:50:22.585Z,10.73
2018-06-14T05:52:50.200Z,11.37
2018-06-14T05:55:17.756Z,11.73
2018-06-14T05:57:45.292Z,10.03
2018-06-14T06:00:15.535Z,10.17
2018-06-14T06:02:43.580Z,10.50
2018-06-14T06:05:11.099Z,10.57
2018-06-14T06:07:38.808Z,9.20
2018-06-14T06:10:07.081Z,9.60
2018-06-14T06:12:34.608Z,9.73
2018-06-14T06:15:02.130Z,8.80
2018-06-14T06:17:29.710Z,8.57
2018-06-14T06:19:57.310Z,7.80
2018-06-14T06:22:25.367Z,7.53
2018-06-14T06:24:52.904Z,9.23
2018-06-14T06:27:20.418Z,8.07
2018-06-14T06:29:47.946Z,7.80
2018-06-14T06:32:15.584Z,8.37
2018-06-14T06:34:43.098Z,7.70
2018-06-14T06:37:10.618Z,8.60
2018-06-14T06:39:38.140Z,8.43
2018-06-14T06:42:05.782Z,8.93
2018-06-14T06:44:33.324Z,8.57
2018-06-14T06:47:00.885Z,9.20
2018-06-14T06:49:28.434Z,8.37
2018-06-14T06:51:55.987Z,9.13
2018-06-14T06:54:23.476Z,8.27
2018-06-14T06:56:51.008Z,7.90
2018-06-14T06:59:18.513Z,6.77
2018-06-14T07:01:46.066Z,7.70
2018-06-14T07:04:13.596Z,7.73
2018-06-14T07:06:41.132Z,7.13
2018-06-14T07:09:09.978Z,7.23
2018-06-14T07:11:37.546Z,6.80
2018-06-14T07:14:05.366Z,7.17
2018-06-14T07:16:32.929Z,6.83
2018-06-14T07:19:00.489Z,8.00
2018-06-14T07:21:28.106Z,7.50
2018-06-14T07:23:55.683Z,7.63
2018-06-14T07:26:23.259Z,7.33
2018-06-14T07:28:50.809Z,7.23
2018-06-14T07:31:18.331Z,7.20
2018-06-14T07:33:45.870Z,8.17
2018-06-14T07:36:13.385Z,6.57
2018-06-14T07:38:40.913Z,7.83
2018-06-14T07:41:08.442Z,8.20
2018-06-14T07:43:35.955Z,7.67
2018-06-14T07:46:03.588Z,7.60
2018-06-14T07:48:31.183Z,7.93
2018-06-14T07:50:58.730Z,8.27
2018-06-14T07:53:26.277Z,8.30
2018-06-14T07:55:53.844Z,7.80
2018-06-14T07:58:21.409Z,8.10
2018-06-14T08:00:48.968Z,8.20
2018-06-14T08:03:16.565Z,7.30
2018-06-14T08:05:44.141Z,6.60
2018-06-14T08:08:11.734Z,6.77
2018-06-14T08:10:39.282Z,8.30
2018-06-14T08:13:06.784Z,7.37
2018-06-14T08:15:34.316Z,8.40
2018-06-14T08:18:01.872Z,8.10
2018-06-14T08:20:29.721Z,7.63
2018-06-14T08:22:57.405Z,7.20
2018-06-14T08:25:25.005Z,7.37
2018-06-14T08:27:52.636Z,7.93
2018-06-14T08:30:20.166Z,7.37
2018-06-14T08:32:47.712Z,7.10
2018-06-14T08:35:15.305Z,8.07
2018-06-14T08:37:42.844Z,7.60
2018-06-14T08:40:10.374Z,7.60
2018-06-14T08:42:37.918Z,6.40
2018-06-14T08:45:05.448Z,7.10
2018-06-14T08:47:32.996Z,8.60
2018-06-14T08:50:00.513Z,9.70
2018-06-14T08:52:28.086Z,8.60
2018-06-14T08:54:55.644Z,7.37
2018-06-14T08:57:23.167Z,7.83
2018-06-14T08:59:50.709Z,6.87
2018-06-14T09:02:18.278Z,6.80
2018-06-14T09:04:45.849Z,7.40
2018-06-14T09:07:13.402Z,5.93
2018-06-14T09:09:41.025Z,6.40
2018-06-14T09:12:08.617Z,5.80
2018-06-14T09:14:36.183Z,6.37
2018-06-14T09:17:03.739Z,5.40
2018-06-14T09:19:31.305Z,6.13
2018-06-14T09:21:58.893Z,6.70
2018-06-14T09:24:26.539Z,5.93
2018-06-14T09:26:54.102Z,5.67
2018-06-14T09:29:21.684Z,5.60
2018-06-14T09:31:49.221Z,5.57
2018-06-14T09:34:16.742Z,6.10
2018-06-14T09:36:44.301Z,5.17
2018-06-14T09:39:11.865Z,5.37
2018-06-14T09:41:40.051Z,5.47
2018-06-14T09:44:07.650Z,6.73
2018-06-14T09:46:35.260Z,5.00
2018-06-14T09:49:09.326Z,6.07
2018-06-14T09:51:36.923Z,7.40
2018-06-14T09:54:04.724Z,6.73
2018-06-14T09:56:32.258Z,5.83
2018-06-14T09:58:59.788Z,7.73
2018-06-14T10:01:27.432Z,9.33
2018-06-14T10:03:55.019Z,9.73
2018-06-14T10:06:22.619Z,6.40
2018-06-14T10:08:50.152Z,4.50
2018-06-14T10:11:17.683Z,5.60
2018-06-14T10:13:45.258Z,9.60
2018-06-14T10:16:12.813Z,7.67
2018-06-14T10:18:40.377Z,9.70
2018-06-14T10:21:07.930Z,6.03
2018-06-14T10:23:35.738Z,5.90
2018-06-14T10:26:03.312Z,6.40
2018-06-14T10:28:30.888Z,5.33
2018-06-14T10:30:58.770Z,5.00
2018-06-14T10:33:26.334Z,5.37
2018-06-14T10:35:54.110Z,4.67
2018-06-14T10:38:21.645Z,4.50
2018-06-14T10:40:49.178Z,5.20
2018-06-14T10:43:16.764Z,4.73
2018-06-14T10:45:44.340Z,4.40
2018-06-14T10:48:11.926Z,5.57
2018-06-14T10:50:39.474Z,4.70
2018-06-14T10:53:07.054Z,4.13
2018-06-14T10:55:34.632Z,4.50
2018-06-14T10:58:02.206Z,4.20
2018-06-14T11:00:29.818Z,5.30
2018-06-14T11:02:57.322Z,5.00
2018-06-14T11:05:24.857Z,6.13
2018-06-14T11:07:52.420Z,6.60
2018-06-14T11:10:20.034Z,4.70
2018-06-14T11:12:47.826Z,4.93
2018-06-14T11:15:15.567Z,5.00
2018-06-14T11:17:43.179Z,4.73
2018-06-14T11:20:10.745Z,5.00
2018-06-14T11:22:38.322Z,5.73
2018-06-14T11:25:05.962Z,4.93
2018-06-14T11:27:33.503Z,5.03
2018-06-14T11:30:01.079Z,4.60
2018-06-14T11:32:28.637Z,4.50
2018-06-14T11:34:56.178Z,4.47
2018-06-14T11:37:24.442Z,4.90
2018-06-14T11:39:51.994Z,5.00
2018-06-14T11:42:19.494Z,5.27
2018-06-14T11:44:47.063Z,4.97
2018-06-14T11:47:14.642Z,4.73
2018-06-14T11:49:42.234Z,5.60
2018-06-14T11:52:09.783Z,6.10
2018-06-14T11:54:37.380Z,5.73
2018-06-14T11:57:04.985Z,5.90
2018-06-14T11:59:32.533Z,5.77
2018-06-14T12:02:00.100Z,5.13
2018-06-14T12:04:27.664Z,5.30
2018-06-14T12:06:55.227Z,5.23
2018-06-14T12:09:22.836Z,5.60
2018-06-14T12:11:50.398Z,5.47
2018-06-14T12:14:17.947Z,5.80
2018-06-14T12:16:45.500Z,6.20
2018-06-14T12:19:13.069Z,5.80
2018-06-14T12:21:40.600Z,5.57
2018-06-14T12:24:08.194Z,5.47
2018-06-14T12:26:35.767Z,4.80
2018-06-14T12:29:03.393Z,5.93
2018-06-14T12:31:31.043Z,5.57
2018-06-14T12:33:58.635Z,6.10
2018-06-14T12:36:26.199Z,5.83
2018-06-14T12:38:53.739Z,5.77
2018-06-14T12:41:21.339Z,6.00
2018-06-14T12:43:48.852Z,4.70
2018-06-14T12:46:16.412Z,5.50
2018-06-14T12:48:43.996Z,4.90
2018-06-14T12:51:11.563Z,6.10
2018-06-14T12:53:39.115Z,5.50
2018-06-14T12:56:06.719Z,5.70
2018-06-14T12:58:34.318Z,5.30
2018-06-14T13:01:01.985Z,4.70
2018-06-14T13:03:29.738Z,5.97
2018-06-14T13:05:57.269Z,5.33
2018-06-14T13:08:24.860Z,4.53
2018-06-14T13:10:52.478Z,5.53
2018-06-14T13:13:20.032Z,4.73
2018-06-14T13:15:47.623Z,4.90
2018-06-14T13:18:15.196Z,4.00
2018-06-14T13:20:42.817Z,5.13
2018-06-14T13:23:10.420Z,4.90
2018-06-14T13:25:38.044Z,4.50
2018-06-14T13:28:05.642Z,4.83
2018-06-14T13:30:33.248Z,5.20
2018-06-14T13:33:00.843Z,5.03
2018-06-14T13:35:28.406Z,4.90
2018-06-14T13:37:55.978Z,4.50
2018-06-14T13:40:23.593Z,4.17
2018-06-14T13:42:51.149Z,4.80
2018-06-14T13:45:18.675Z,4.77
2018-06-14T13:47:46.253Z,4.73
2018-06-14T13:50:13.904Z,4.20
2018-06-14T13:52:41.492Z,5.60
2018-06-14T13:55:09.209Z,4.13
2018-06-14T13:57:36.757Z,5.30
2018-06-14T14:00:04.397Z,4.67
2018-06-14T14:02:31.939Z,3.77
2018-06-14T14:04:59.512Z,4.10
2018-06-14T14:07:28.089Z,5.50
2018-06-14T14:09:56.280Z,4.90
2018-06-14T14:12:24.320Z,5.43
2018-06-14T14:14:51.846Z,5.30
2018-06-14T14:17:19.423Z,4.63
2018-06-14T14:19:47.026Z,4.50
2018-06-14T14:22:14.606Z,4.00
2018-06-14T14:24:42.195Z,4.67
2018-06-14T14:27:09.777Z,4.50
2018-06-14T14:29:37.377Z,4.63
2018-06-14T14:32:04.959Z,4.40
2018-06-14T14:34:32.586Z,4.60
2018-06-14T14:37:00.245Z,4.77
2018-06-14T14:39:27.797Z,4.27
2018-06-14T14:41:55.372Z,4.93
2018-06-14T14:44:22.933Z,4.67
2018-06-14T14:46:50.497Z,5.27
2018-06-14T14:49:18.042Z,4.27
2018-06-14T14:51:45.595Z,4.93
2018-06-14T14:54:13.206Z,4.70
2018-06-14T14:56:40.751Z,4.67
2018-06-14T14:59:08.329Z,4.63
2018-06-14T15:01:35.852Z,4.67
2018-06-14T15:04:03.394Z,3.70
2018-06-14T15:06:30.964Z,4.90
2018-06-14T15:08:58.576Z,3.80
2018-06-14T15:11:26.137Z,4.77
2018-06-14T15:13:53.690Z,4.53
2018-06-14T15:16:21.251Z,4.57
2018-06-14T15:18:48.790Z,4.10
2018-06-14T15:21:16.406Z,4.30
2018-06-14T15:23:43.957Z,5.00
2018-06-14T15:26:11.506Z,3.90
2018-06-14T15:28:39.066Z,4.23
2018-06-14T15:31:06.646Z,5.20
2018-06-14T15:33:34.307Z,4.30
2018-06-14T15:36:01.918Z,4.80
2018-06-14T15:38:29.471Z,4.60
2018-06-14T15:40:57.040Z,4.47
2018-06-14T15:43:24.706Z,4.47
2018-06-14T15:45:52.280Z,4.33
2018-06-14T15:48:19.843Z,4.20
2018-06-14T15:50:47.430Z,4.57
2018-06-14T15:53:15.024Z,3.83
2018-06-14T15:56:07.029Z,3.90
2018-06-14T15:58:34.635Z,3.67
2018-06-14T16:01:02.206Z,3.50
2018-06-14T16:03:29.830Z,4.40
2018-06-14T16:05:57.414Z,4.13
2018-06-14T16:08:25.034Z,4.27
2018-06-14T16:10:53.045Z,4.10
2018-06-14T16:13:20.923Z,3.93
2018-06-14T16:15:48.562Z,4.70
2018-06-14T16:18:16.393Z,5.13
2018-06-14T16:20:44.140Z,4.07
2018-06-14T16:23:11.705Z,4.30
2018-06-14T16:25:39.279Z,3.67
2018-06-14T16:28:06.866Z,4.47
2018-06-14T16:30:34.668Z,3.60
2018-06-14T16:33:02.206Z,3.90
2018-06-14T16:35:29.787Z,3.60
2018-06-14T16:37:57.333Z,4.13
2018-06-14T16:40:24.921Z,4.30
2018-06-14T16:42:52.471Z,4.97
2018-06-14T16:45:20.024Z,4.03
2018-06-14T16:47:47.535Z,3.83
2018-06-14T16:50:15.122Z,4.30
2018-06-14T16:52:42.744Z,3.63
2018-06-14T16:55:10.309Z,4.40
2018-06-14T16:57:37.839Z,3.97
2018-06-14T17:00:05.911Z,4.10
2018-06-14T17:02:33.486Z,3.80
2018-06-14T17:05:01.291Z,3.50
2018-06-14T17:07:28.834Z,4.87
2018-06-14T17:09:56.388Z,4.60
2018-06-14T17:12:24.024Z,4.83
2018-06-14T17:14:51.563Z,4.53
2018-06-14T17:17:19.134Z,5.30
2018-06-14T17:19:46.637Z,4.37
2018-06-14T17:22:14.327Z,4.90
2018-06-14T17:24:41.973Z,5.70
2018-06-14T17:27:09.536Z,4.80
2018-06-14T17:29:37.315Z,4.50
2018-06-14T17:32:04.946Z,3.90
2018-06-14T17:34:32.518Z,4.47
2018-06-14T17:37:00.118Z,3.90
2018-06-14T17:39:28.248Z,4.37
2018-06-14T17:41:55.820Z,4.47
2018-06-14T17:44:23.410Z,4.20
2018-06-14T17:46:50.986Z,4.00
2018-06-14T17:49:18.707Z,3.87
2018-06-14T17:51:46.293Z,4.27
2018-06-14T17:54:13.942Z,4.40
2018-06-14T17:56:41.554Z,4.90
2018-06-14T17:59:09.224Z,3.73
2018-06-14T18:01:36.954Z,3.90
2018-06-14T18:04:04.531Z,3.90
2018-06-14T18:06:32.303Z,4.47
2018-06-14T18:08:59.860Z,4.30
2018-06-14T18:11:27.546Z,4.40
2018-06-14T18:13:55.136Z,4.33
2018-06-14T18:16:22.778Z,4.60
2018-06-14T18:18:50.471Z,4.40
2018-06-14T18:21:18.139Z,4.10
2018-06-14T18:23:45.814Z,5.07
2018-06-14T18:26:13.491Z,5.27
2018-06-14T18:28:41.177Z,4.67
2018-06-14T18:31:08.887Z,4.10
2018-06-14T18:33:36.523Z,3.93
2018-06-14T18:36:04.471Z,4.17
2018-06-14T18:38:32.147Z,3.90
2018-06-14T18:41:00.846Z,4.00
2018-06-14T18:43:28.576Z,3.50
2018-06-14T18:45:56.594Z,4.03
2018-06-14T18:48:24.250Z,4.70
2018-06-14T18:50:51.881Z,3.90
2018-06-14T18:53:19.592Z,4.47
2018-06-14T18:55:47.228Z,4.20
2018-06-14T18:58:14.907Z,4.13
2018-06-14T19:00:43.506Z,4.93
2018-06-14T19:03:11.309Z,4.20
2018-06-14T19:05:38.990Z,4.37
2018-06-14T19:08:06.653Z,3.97
2018-06-14T19:10:34.344Z,4.67
2018-06-14T19:13:02.074Z,3.50
2018-06-14T19:15:29.778Z,4.53
2018-06-14T19:17:57.472Z,4.60
2018-06-14T19:20:25.119Z,3.90
2018-06-14T19:22:52.847Z,4.30
2018-06-14T19:25:21.213Z,4.33
2018-06-14T19:27:48.899Z,4.53
2018-06-14T19:30:16.597Z,4.43
2018-06-14T19:32:44.273Z,4.33
2018-06-14T19:35:11.957Z,4.03
2018-06-14T19:37:39.596Z,4.43
2018-06-14T19:40:08.225Z,4.57
2018-06-14T19:42:36.522Z,3.90
2018-06-14T19:45:04.199Z,4.17
2018-06-14T19:47:32.474Z,4.10
2018-06-14T19:50:00.127Z,4.10
2018-06-14T19:52:27.829Z,4.77
2018-06-14T19:54:56.160Z,4.77
2018-06-14T19:57:23.828Z,5.07
2018-06-14T19:59:51.510Z,4.33
2018-06-14T20:02:19.132Z,4.80
2018-06-14T20:04:46.937Z,4.87
2018-06-14T20:07:14.646Z,4.67
2018-06-14T20:09:42.357Z,5.27
2018-06-14T20:12:10.028Z,5.20
2018-06-14T20:14:37.826Z,4.10
2018-06-14T20:17:05.526Z,4.70
2018-06-14T20:19:33.173Z,4.67
2018-06-14T20:22:00.850Z,5.13
2018-06-14T20:24:28.577Z,4.60
2018-06-14T20:26:56.214Z,5.20
2018-06-14T20:29:23.911Z,4.30
2018-06-14T20:31:51.541Z,4.20
2018-06-14T20:34:19.195Z,5.03
2018-06-14T20:36:46.888Z,4.63
2018-06-14T20:39:14.547Z,4.80
2018-06-14T20:41:42.191Z,5.07
2018-06-14T20:44:09.879Z,5.00
2018-06-14T20:46:37.519Z,5.13
2018-06-14T20:49:05.403Z,4.10
2018-06-14T20:51:33.089Z,5.00
2018-06-14T20:54:00.816Z,5.00
2018-06-14T20:56:28.531Z,4.70
2018-06-14T20:58:56.149Z,5.70
2018-06-14T21:01:23.809Z,5.20
2018-06-14T21:03:51.463Z,5.53
2018-06-14T21:06:19.053Z,5.60
2018-06-14T21:08:46.686Z,4.77
2018-06-14T21:11:14.300Z,4.77
2018-06-14T21:13:41.888Z,5.43
2018-06-14T21:16:09.452Z,4.87
2018-06-14T21:18:36.987Z,5.07
2018-06-14T21:21:04.616Z,6.73
2018-06-14T21:23:32.214Z,5.80
2018-06-14T21:25:59.801Z,5.80
2018-06-14T21:28:27.353Z,5.67
2018-06-14T21:30:54.951Z,5.87
2018-06-14T21:33:22.527Z,5.80
2018-06-14T21:35:50.079Z,6.47
2018-06-14T21:38:17.663Z,5.80
2018-06-14T21:40:45.160Z,5.57
2018-06-14T21:43:12.675Z,5.83
2018-06-14T21:45:40.257Z,6.07
2018-06-14T21:48:07.811Z,5.37
2018-06-14T21:50:35.389Z,5.70
2018-06-14T21:53:02.942Z,6.00
2018-06-14T21:55:30.519Z,6.43
2018-06-14T21:57:58.092Z,6.70
2018-06-14T22:00:25.655Z,5.80
2018-06-14T22:02:58.960Z,5.70
2018-06-14T22:05:26.895Z,6.33
2018-06-14T22:07:54.383Z,6.20
2018-06-14T22:10:21.958Z,5.87
2018-06-14T22:12:49.500Z,6.37
2018-06-14T22:15:17.080Z,5.70
2018-06-14T22:17:44.661Z,5.20
2018-06-14T22:20:12.204Z,6.07
2018-06-14T22:22:39.750Z,5.97
2018-06-14T22:25:07.374Z,5.60
2018-06-14T22:27:34.866Z,6.37
2018-06-14T22:30:02.764Z,5.70
2018-06-14T22:32:30.288Z,5.83
2018-06-14T22:35:24.982Z,6.20
2018-06-14T22:37:52.516Z,6.20
2018-06-14T22:40:20.053Z,6.20
2018-06-14T22:42:47.620Z,7.23
2018-06-14T22:45:15.179Z,7.07
2018-06-14T22:47:42.775Z,7.40
2018-06-14T22:50:10.349Z,7.60
2018-06-14T22:53:12.554Z,8.03
2018-06-14T22:55:40.107Z,9.03
2018-06-14T22:58:07.638Z,9.10
2018-06-14T23:00:47.864Z,7.83
2018-06-14T23:03:15.429Z,8.17
2018-06-14T23:05:43.003Z,8.23
2018-06-14T23:08:10.544Z,9.20
2018-06-14T23:10:49.469Z,8.90
2018-06-14T23:13:18.060Z,9.10
2018-06-14T23:15:46.467Z,7.80
2018-06-14T23:18:13.993Z,7.77
2018-06-14T23:20:41.559Z,8.20
2018-06-14T23:23:09.470Z,7.53
2018-06-14T23:25:37.595Z,7.60
2018-06-14T23:28:05.223Z,8.90
2018-06-14T23:30:32.765Z,9.80
2018-06-14T23:33:00.351Z,8.77
2018-06-14T23:35:27.922Z,9.90
2018-06-14T23:37:55.449Z,9.20
2018-06-14T23:40:23.124Z,8.90
2018-06-14T23:42:50.663Z,8.40
2018-06-14T23:45:18.177Z,8.07
2018-06-14T23:47:45.742Z,7.60
2018-06-14T23:50:13.268Z,7.43
2018-06-14T23:52:40.824Z,8.13
2018-06-14T23:55:08.345Z,9.00
2018-06-14T23:57:35.809Z,7.93
